Time;durP1;ratioP1;P1;durP2;ratioP2;P2;SDS_P1;SDS_P2;PMS_P1;PMS_P2;Temp;Humidity;BMP_temperature;BMP_pressure;BME280_temperature;BME280_humidity;BME280_pressure;Samples;Min_cycle;Max_cycle;Signal;HPM_P1;HPM_P2
2021/08/22 00:00:04;;;;;;;1.60;1.50;;;17.90;98.40;;;;;;5061831;28;20290;-70
2021/08/22 00:02:40;;;;;;;1.45;1.30;;;17.90;98.40;;;;;;5049947;28;20202;-71
2021/08/22 00:05:07;;;;;;;1.52;1.40;;;18.00;98.40;;;;;;5049255;28;20208;-72
2021/08/22 00:07:34;;;;;;;2.33;1.40;;;17.90;98.30;;;;;;5049092;28;20565;-71
2021/08/22 00:10:01;;;;;;;1.40;1.30;;;17.90;98.40;;;;;;5047848;28;20543;-71
2021/08/22 00:12:28;;;;;;;1.57;1.47;;;17.90;98.30;;;;;;5048924;28;20253;-71
2021/08/22 00:14:55;;;;;;;1.30;1.20;;;17.90;98.30;;;;;;5047384;28;20581;-71
2021/08/22 00:17:22;;;;;;;1.40;1.30;;;17.90;98.30;;;;;;5050221;28;20234;-71
2021/08/22 00:19:50;;;;;;;1.40;1.30;;;17.90;98.30;;;;;;5049789;28;20199;-71
2021/08/22 00:22:17;;;;;;;1.47;1.37;;;17.90;98.20;;;;;;5049036;28;20305;-71
2021/08/22 00:24:44;;;;;;;1.38;1.27;;;17.90;98.20;;;;;;5046996;28;20204;-71
2021/08/22 00:27:11;;;;;;;1.20;1.20;;;17.80;98.20;;;;;;5047958;28;20205;-70
2021/08/22 00:29:38;;;;;;;1.40;1.30;;;17.80;98.30;;;;;;5064206;28;20644;-71
2021/08/22 00:32:07;;;;;;;1.70;1.60;;;17.80;98.30;;;;;;5049463;28;20208;-73
2021/08/22 00:34:34;;;;;;;1.48;1.23;;;17.80;98.30;;;;;;5048674;28;20314;-70
2021/08/22 00:37:02;;;;;;;1.43;1.30;;;17.80;98.40;;;;;;5049263;28;20335;-72
2021/08/22 00:39:29;;;;;;;1.90;1.70;;;17.70;98.30;;;;;;5047453;28;20203;-72
2021/08/22 00:41:56;;;;;;;1.70;1.60;;;17.70;98.40;;;;;;5046242;28;20236;-71
2021/08/22 00:44:23;;;;;;;1.33;1.23;;;17.60;98.40;;;;;;5048695;28;20203;-71
2021/08/22 00:46:52;;;;;;;1.40;1.20;;;17.60;98.40;;;;;;5048773;28;20289;-72
2021/08/22 00:49:22;;;;;;;2.17;1.40;;;17.60;98.80;;;;;;5048100;28;20201;-71
2021/08/22 00:51:49;;;;;;;1.40;1.30;;;17.50;98.50;;;;;;5053307;28;20214;-71
2021/08/22 00:54:17;;;;;;;1.50;1.40;;;17.50;98.60;;;;;;5047033;28;20225;-71
2021/08/22 00:56:44;;;;;;;1.23;1.23;;;17.50;98.60;;;;;;5048178;28;20206;-71
2021/08/22 00:59:12;;;;;;;1.27;1.27;;;17.50;98.60;;;;;;5048631;28;20258;-71
2021/08/22 01:01:41;;;;;;;1.77;1.30;;;17.50;98.60;;;;;;5048608;28;20276;-72
2021/08/22 01:04:16;;;;;;;1.30;1.20;;;17.40;98.60;;;;;;5048254;28;20198;-71
2021/08/22 01:06:53;;;;;;;1.23;1.23;;;17.40;98.70;;;;;;5047460;28;20245;-71
2021/08/22 01:09:26;;;;;;;1.00;1.00;;;17.40;98.70;;;;;;5047306;28;20351;-71
2021/08/22 01:11:54;;;;;;;1.30;1.20;;;17.40;98.80;;;;;;5047651;28;20742;-71
2021/08/22 01:14:27;;;;;;;1.50;1.40;;;17.30;98.90;;;;;;5048395;28;20253;-71
2021/08/22 01:16:56;;;;;;;1.30;1.20;;;17.40;99.00;;;;;;5047921;28;20221;-71
2021/08/22 01:19:32;;;;;;;1.50;1.40;;;17.40;99.00;;;;;;5047026;28;20233;-71
2021/08/22 01:22:01;;;;;;;1.50;1.40;;;17.40;99.10;;;;;;5044115;28;20214;-71
2021/08/22 01:24:29;;;;;;;1.37;1.27;;;17.40;99.00;;;;;;5046880;28;20301;-72
2021/08/22 01:26:58;;;;;;;1.50;1.37;;;17.40;99.10;;;;;;5047152;28;20194;-71
2021/08/22 01:29:31;;;;;;;1.73;1.60;;;17.30;99.10;;;;;;5047082;28;20203;-72
2021/08/22 01:32:01;;;;;;;1.50;1.40;;;17.30;99.10;;;;;;5047772;28;20703;-72
2021/08/22 01:34:30;;;;;;;1.40;1.30;;;17.30;99.20;;;;;;5048172;28;20213;-72
2021/08/22 01:36:59;;;;;;;1.33;1.23;;;17.30;99.20;;;;;;5047140;28;20213;-71
2021/08/22 01:39:26;;;;;;;1.87;1.50;;;17.30;99.30;;;;;;5045548;28;20222;-71
2021/08/22 01:41:54;;;;;;;1.40;1.30;;;17.30;99.30;;;;;;5047113;28;20328;-71
2021/08/22 01:44:22;;;;;;;1.00;1.00;;;17.20;99.30;;;;;;5045715;28;20236;-71
2021/08/22 01:46:50;;;;;;;1.40;1.30;;;17.20;99.40;;;;;;5047122;28;20688;-71
2021/08/22 01:49:20;;;;;;;1.40;1.30;;;17.20;99.50;;;;;;5047321;28;20193;-70
2021/08/22 01:51:48;;;;;;;1.50;1.40;;;17.20;99.50;;;;;;5040807;28;20229;-70
2021/08/22 01:54:15;;;;;;;1.20;1.10;;;17.10;99.60;;;;;;5059904;28;20198;-70
2021/08/22 01:56:42;;;;;;;1.40;1.30;;;17.10;99.60;;;;;;5046971;28;20206;-71
2021/08/22 01:59:10;;;;;;;1.57;1.40;;;17.10;99.70;;;;;;5047562;28;20245;-71
2021/08/22 02:01:38;;;;;;;1.70;1.50;;;17.00;99.80;;;;;;5045940;28;20206;-71
2021/08/22 02:04:12;;;;;;;1.70;1.60;;;17.00;99.90;;;;;;5047351;28;20230;-71
2021/08/22 02:06:46;;;;;;;2.03;1.63;;;16.90;99.90;;;;;;5041636;28;20200;-71
2021/08/22 02:09:18;;;;;;;1.67;1.20;;;16.80;99.90;;;;;;5046113;28;20821;-71
2021/08/22 02:11:50;;;;;;;1.30;1.20;;;16.80;99.90;;;;;;5046060;28;20271;-71
2021/08/22 02:14:20;;;;;;;1.43;1.33;;;16.80;99.90;;;;;;5041703;28;20305;-71
2021/08/22 02:16:49;;;;;;;1.67;1.57;;;16.70;99.90;;;;;;5046943;28;20244;-70
2021/08/22 02:19:17;;;;;;;1.37;1.27;;;16.80;99.90;;;;;;5042991;28;20217;-71
2021/08/22 02:21:46;;;;;;;1.03;1.00;;;16.70;99.90;;;;;;5046838;28;20202;-70
2021/08/22 02:24:15;;;;;;;1.03;0.93;;;16.60;99.90;;;;;;5041888;28;20705;-72
2021/08/22 02:26:42;;;;;;;1.30;1.20;;;16.60;99.90;;;;;;5045889;28;20205;-72
2021/08/22 02:29:10;;;;;;;1.40;1.30;;;16.60;99.90;;;;;;5046217;28;20198;-70
2021/08/22 02:31:38;;;;;;;1.60;1.50;;;16.60;99.90;;;;;;5043711;28;20550;-72
2021/08/22 02:34:05;;;;;;;1.70;1.50;;;16.60;99.90;;;;;;5046957;28;20288;-70
2021/08/22 02:36:32;;;;;;;1.40;1.30;;;16.50;99.90;;;;;;5044890;28;20224;-71
2021/08/22 02:38:59;;;;;;;1.50;1.40;;;16.50;99.90;;;;;;5046053;28;20229;-71
2021/08/22 02:41:27;;;;;;;1.53;1.43;;;16.50;99.90;;;;;;5044256;28;20210;-71
2021/08/22 02:43:54;;;;;;;1.23;1.23;;;16.60;99.90;;;;;;5047034;28;20346;-71
2021/08/22 02:46:21;;;;;;;1.63;1.53;;;16.60;99.90;;;;;;5047028;28;20193;-71
2021/08/22 02:48:48;;;;;;;1.40;1.30;;;16.60;99.90;;;;;;5045728;28;20301;-71
2021/08/22 02:51:15;;;;;;;1.43;1.33;;;16.60;99.90;;;;;;5048512;28;20213;-70
2021/08/22 02:53:42;;;;;;;1.83;1.40;;;16.50;99.90;;;;;;5050875;28;20448;-70
2021/08/22 02:56:09;;;;;;;1.30;1.20;;;16.50;99.90;;;;;;5055920;28;20203;-71
2021/08/22 02:58:37;;;;;;;1.67;1.43;;;16.40;99.90;;;;;;5051324;28;20218;-70
2021/08/22 03:01:04;;;;;;;1.53;1.43;;;16.40;99.90;;;;;;5049173;28;20238;-71
2021/08/22 03:03:31;;;;;;;2.07;1.53;;;16.40;99.90;;;;;;5049876;28;20250;-71
2021/08/22 03:05:58;;;;;;;1.47;1.37;;;16.40;99.90;;;;;;5049680;28;20209;-71
2021/08/22 03:08:24;;;;;;;1.30;1.20;;;16.40;99.90;;;;;;5050059;28;20267;-71
2021/08/22 03:10:51;;;;;;;1.40;1.30;;;16.40;99.90;;;;;;5048369;28;20209;-71
2021/08/22 03:13:18;;;;;;;1.50;1.40;;;16.40;99.90;;;;;;5051460;28;20315;-71
2021/08/22 03:15:46;;;;;;;1.53;1.43;;;16.40;99.90;;;;;;5048753;28;20666;-71
2021/08/22 03:18:13;;;;;;;1.23;1.20;;;16.40;99.90;;;;;;5049133;28;20415;-70
2021/08/22 03:20:40;;;;;;;1.43;1.33;;;16.40;99.90;;;;;;5048741;28;20296;-70
2021/08/22 03:23:07;;;;;;;1.20;1.20;;;16.40;99.90;;;;;;5048613;28;20245;-71
2021/08/22 03:25:34;;;;;;;1.30;1.20;;;16.50;99.90;;;;;;5048249;28;20718;-70
2021/08/22 03:28:01;;;;;;;1.60;1.50;;;16.50;99.90;;;;;;5050717;28;20214;-70
2021/08/22 03:30:28;;;;;;;1.50;1.40;;;16.40;99.90;;;;;;5040198;28;20210;-71
2021/08/22 03:32:56;;;;;;;2.20;1.30;;;16.40;99.90;;;;;;5050474;28;20248;-71
2021/08/22 03:35:23;;;;;;;1.07;1.07;;;16.40;99.90;;;;;;5050096;28;20190;-71
2021/08/22 03:37:50;;;;;;;2.50;1.40;;;16.40;99.90;;;;;;5048857;28;20721;-71
2021/08/22 03:40:18;;;;;;;1.50;1.40;;;16.40;99.90;;;;;;5048494;28;20272;-71
2021/08/22 03:42:45;;;;;;;1.40;1.30;;;16.40;99.90;;;;;;5048353;28;20198;-72
2021/08/22 03:45:12;;;;;;;2.10;1.50;;;16.40;99.90;;;;;;5049423;28;20562;-70
2021/08/22 03:47:39;;;;;;;1.47;1.37;;;16.40;99.90;;;;;;5048354;28;20288;-72
2021/08/22 03:50:09;;;;;;;1.33;1.23;;;16.40;99.90;;;;;;5048335;28;20256;-71
2021/08/22 03:52:36;;;;;;;1.30;1.20;;;16.40;99.90;;;;;;5049298;28;20288;-71
2021/08/22 03:55:03;;;;;;;1.33;1.23;;;16.40;99.90;;;;;;5048172;28;20275;-71
2021/08/22 03:57:31;;;;;;;1.20;1.10;;;16.40;99.90;;;;;;5054812;28;20668;-70
2021/08/22 03:59:58;;;;;;;2.33;1.70;;;16.40;99.90;;;;;;5029743;28;20224;-70
2021/08/22 04:02:26;;;;;;;1.50;1.40;;;16.50;99.90;;;;;;5030304;28;20202;-70
2021/08/22 04:05:16;;;;;;;1.50;1.23;;;16.40;99.90;;;;;;5040026;28;20858;-69
2021/08/22 04:07:46;;;;;;;1.40;1.30;;;16.50;99.90;;;;;;5046779;28;20198;-69
2021/08/22 04:10:13;;;;;;;1.40;1.30;;;16.50;99.90;;;;;;5048070;28;20730;-70
2021/08/22 04:12:40;;;;;;;1.60;1.50;;;16.50;99.90;;;;;;5049166;28;20209;-70
2021/08/22 04:15:07;;;;;;;1.40;1.30;;;16.50;99.90;;;;;;5049644;28;20201;-70
2021/08/22 04:17:34;;;;;;;1.23;1.23;;;16.50;99.90;;;;;;5048919;28;20221;-71
2021/08/22 04:20:01;;;;;;;1.90;1.30;;;16.60;99.90;;;;;;5049809;28;20388;-71
2021/08/22 04:22:29;;;;;;;1.40;1.30;;;16.60;99.90;;;;;;5049249;28;20230;-70
2021/08/22 04:24:56;;;;;;;2.00;1.90;;;16.70;99.90;;;;;;5045839;28;20202;-71
2021/08/22 04:27:23;;;;;;;2.53;2.13;;;16.70;99.90;;;;;;5048146;28;20194;-71
2021/08/22 04:29:50;;;;;;;2.07;1.90;;;16.70;99.90;;;;;;5057664;28;20198;-72
2021/08/22 04:32:18;;;;;;;1.93;1.80;;;16.80;99.90;;;;;;5049097;28;20190;-71
2021/08/22 04:34:45;;;;;;;1.60;1.50;;;16.90;99.90;;;;;;5049856;28;20205;-71
2021/08/22 04:37:12;;;;;;;1.53;1.40;;;16.90;99.90;;;;;;5048130;28;20293;-72
2021/08/22 04:39:40;;;;;;;1.40;1.30;;;16.90;99.90;;;;;;5047132;28;20226;-71
2021/08/22 04:42:07;;;;;;;1.30;1.23;;;16.90;99.90;;;;;;5048067;28;20674;-71
2021/08/22 04:44:34;;;;;;;1.57;1.43;;;17.00;99.90;;;;;;5050264;28;20241;-71
2021/08/22 04:47:01;;;;;;;2.10;1.90;;;17.00;99.90;;;;;;5048628;28;20638;-71
2021/08/22 04:49:27;;;;;;;1.97;1.83;;;17.00;99.90;;;;;;5048010;28;20219;-71
2021/08/22 04:51:54;;;;;;;1.70;1.60;;;17.00;99.90;;;;;;5048638;28;20213;-72
2021/08/22 04:54:22;;;;;;;1.60;1.50;;;17.10;99.90;;;;;;5047555;28;20205;-72
2021/08/22 04:56:50;;;;;;;1.63;1.40;;;17.10;99.90;;;;;;5053630;28;20209;-72
2021/08/22 04:59:17;;;;;;;1.60;1.50;;;17.10;99.90;;;;;;5046832;28;20641;-72
2021/08/22 05:01:44;;;;;;;1.27;1.17;;;17.10;99.90;;;;;;5048502;28;20217;-71
2021/08/22 05:04:11;;;;;;;1.37;1.20;;;17.10;99.90;;;;;;5047337;28;20527;-71
2021/08/22 05:06:37;;;;;;;1.30;1.20;;;17.10;99.90;;;;;;5047350;28;20544;-71
2021/08/22 05:09:04;;;;;;;1.10;1.10;;;17.20;99.90;;;;;;5045532;28;20259;-70
2021/08/22 05:11:31;;;;;;;1.13;0.90;;;17.20;99.90;;;;;;5046828;28;20249;-71
2021/08/22 05:13:59;;;;;;;1.40;1.30;;;17.20;99.90;;;;;;5047971;28;20237;-71
2021/08/22 05:16:26;;;;;;;1.23;1.13;;;17.30;99.90;;;;;;5047738;28;20245;-72
2021/08/22 05:18:53;;;;;;;0.97;0.97;;;17.30;99.90;;;;;;5047999;28;20218;-71
2021/08/22 05:21:20;;;;;;;1.30;1.10;;;17.30;99.90;;;;;;5048531;28;20452;-71
2021/08/22 05:23:47;;;;;;;1.20;1.17;;;17.40;99.90;;;;;;5045885;28;20257;-71
2021/08/22 05:26:14;;;;;;;2.77;1.17;;;17.50;99.90;;;;;;5044865;28;20210;-71
2021/08/22 05:28:41;;;;;;;2.03;1.07;;;17.60;99.90;;;;;;5047766;28;20296;-71
2021/08/22 05:31:10;;;;;;;1.30;1.30;;;17.70;99.90;;;;;;5046708;28;20204;-72
2021/08/22 05:33:36;;;;;;;1.13;1.03;;;18.00;99.90;;;;;;5047635;28;20205;-72
2021/08/22 05:36:17;;;;;;;1.20;1.20;;;18.30;99.90;;;;;;5047496;28;20282;-72
2021/08/22 05:38:45;;;;;;;1.37;1.33;;;18.60;99.90;;;;;;5047355;28;20212;-72
2021/08/22 05:41:12;;;;;;;1.50;1.40;;;19.00;99.40;;;;;;5044930;28;20274;-72
2021/08/22 05:43:39;;;;;;;1.63;1.25;;;19.40;98.90;;;;;;5047268;28;20310;-71
2021/08/22 05:46:06;;;;;;;1.70;1.60;;;19.90;98.40;;;;;;5047723;28;20198;-71
2021/08/22 05:48:34;;;;;;;1.23;1.13;;;20.40;97.50;;;;;;5047052;28;20213;-71
2021/08/22 05:51:01;;;;;;;1.10;1.10;;;20.70;97.00;;;;;;5047114;28;20692;-71
2021/08/22 05:53:29;;;;;;;1.05;0.95;;;20.90;96.60;;;;;;5034595;28;20213;-71
2021/08/22 05:55:56;;;;;;;1.00;1.00;;;21.20;96.10;;;;;;5053234;28;20208;-72
2021/08/22 05:58:23;;;;;;;0.80;0.80;;;21.40;95.40;;;;;;5036217;28;20201;-71
2021/08/22 06:00:50;;;;;;;1.30;1.20;;;21.80;94.80;;;;;;5046890;28;20212;-71
2021/08/22 06:03:17;;;;;;;1.00;0.90;;;22.10;93.60;;;;;;5046535;28;20634;-71
2021/08/22 06:05:46;;;;;;;0.88;0.88;;;22.60;92.70;;;;;;5043626;28;20614;-71
2021/08/22 06:08:13;;;;;;;0.98;0.85;;;22.90;91.80;;;;;;5039851;28;20201;-72
2021/08/22 06:10:40;;;;;;;0.90;0.90;;;23.30;91.20;;;;;;5041285;28;20186;-74
2021/08/22 06:13:07;;;;;;;0.93;0.93;;;23.60;90.30;;;;;;5039321;28;21006;-73
2021/08/22 06:15:34;;;;;;;0.90;0.90;;;23.90;89.40;;;;;;5044636;28;20316;-74
2021/08/22 06:18:01;;;;;;;1.17;1.08;;;24.20;85.80;;;;;;5045514;28;20205;-74
2021/08/22 06:20:28;;;;;;;1.75;0.80;;;24.50;83.40;;;;;;5044567;28;20695;-74
2021/08/22 06:22:56;;;;;;;1.00;1.00;;;25.00;80.40;;;;;;5039523;28;20649;-73
2021/08/22 06:25:23;;;;;;;1.48;0.82;;;25.30;78.10;;;;;;5043629;28;20406;-73
2021/08/22 06:27:50;;;;;;;0.85;0.80;;;25.90;75.90;;;;;;5045523;28;20554;-74
2021/08/22 06:30:17;;;;;;;1.00;1.00;;;26.50;73.10;;;;;;5040921;28;20217;-74
2021/08/22 06:32:44;;;;;;;2.00;1.05;;;27.30;69.70;;;;;;5045732;28;20232;-74
2021/08/22 06:35:12;;;;;;;0.90;0.90;;;28.20;66.10;;;;;;5045758;28;20244;-74
2021/08/22 06:37:40;;;;;;;1.50;0.90;;;29.30;62.50;;;;;;5044188;28;20210;-74
2021/08/22 06:40:10;;;;;;;1.17;1.08;;;30.50;59.20;;;;;;5044585;28;20583;-74
2021/08/22 06:42:37;;;;;;;0.95;0.95;;;31.80;55.70;;;;;;5044811;28;20201;-73
2021/08/22 06:45:05;;;;;;;2.53;1.02;;;33.20;52.70;;;;;;5046439;28;20259;-74
2021/08/22 06:47:32;;;;;;;1.17;0.75;;;34.60;50.30;;;;;;5039706;28;20206;-74
2021/08/22 06:49:59;;;;;;;2.10;0.95;;;36.00;47.80;;;;;;5045281;28;20194;-74
2021/08/22 06:52:26;;;;;;;1.30;1.00;;;37.20;43.70;;;;;;5047046;28;20251;-73
2021/08/22 06:54:53;;;;;;;1.10;1.00;;;38.20;41.50;;;;;;5045221;28;20193;-74
2021/08/22 06:57:21;;;;;;;1.13;1.10;;;39.40;40.10;;;;;;5040044;28;20295;-74
2021/08/22 06:59:48;;;;;;;1.63;1.52;;;40.50;37.80;;;;;;5046518;28;20630;-74
2021/08/22 07:02:15;;;;;;;2.92;2.35;;;41.40;36.00;;;;;;5047462;28;20677;-74
2021/08/22 07:04:42;;;;;;;2.78;2.40;;;42.30;34.80;;;;;;5047066;28;20229;-74
2021/08/22 07:07:09;;;;;;;6.15;3.80;;;43.50;34.10;;;;;;5045407;28;20259;-75
2021/08/22 07:09:36;;;;;;;5.13;4.30;;;44.00;32.70;;;;;;5042172;28;20252;-75
2021/08/22 07:12:03;;;;;;;3.20;2.85;;;44.70;31.50;;;;;;5045108;28;20216;-74
2021/08/22 07:14:31;;;;;;;5.50;3.17;;;45.50;30.10;;;;;;5046583;28;20221;-74
2021/08/22 07:16:58;;;;;;;2.95;2.75;;;46.10;29.50;;;;;;5046671;28;20224;-73
2021/08/22 07:19:27;;;;;;;1.73;1.63;;;46.70;28.70;;;;;;5046178;28;20308;-73
2021/08/22 07:21:54;;;;;;;2.47;2.30;;;47.10;27.80;;;;;;5046194;28;20589;-74
2021/08/22 07:24:21;;;;;;;2.40;2.30;;;47.50;27.20;;;;;;5045498;28;20210;-74
2021/08/22 07:26:48;;;;;;;2.55;2.40;;;47.90;26.60;;;;;;5044744;28;20359;-74
2021/08/22 07:29:15;;;;;;;2.00;1.90;;;48.40;26.00;;;;;;5046606;28;20672;-74
2021/08/22 07:31:43;;;;;;;2.20;2.10;;;48.90;25.70;;;;;;5045031;28;20206;-75
2021/08/22 07:34:10;;;;;;;2.20;2.10;;;49.40;25.20;;;;;;5046416;28;20296;-74
2021/08/22 07:36:37;;;;;;;2.33;2.22;;;50.00;24.70;;;;;;5046327;28;20254;-74
2021/08/22 07:39:04;;;;;;;2.13;2.03;;;50.40;24.10;;;;;;5047558;28;20230;-74
2021/08/22 07:41:31;;;;;;;2.30;2.20;;;50.70;23.90;;;;;;5047590;28;20237;-74
2021/08/22 07:43:57;;;;;;;2.25;2.15;;;50.80;23.00;;;;;;5050611;28;20197;-74
2021/08/22 07:46:24;;;;;;;2.10;2.00;;;51.00;23.20;;;;;;5049357;28;20653;-74
2021/08/22 07:48:53;;;;;;;2.00;1.90;;;51.40;22.90;;;;;;5049746;28;20203;-74
2021/08/22 07:51:21;;;;;;;1.92;1.92;;;51.60;22.60;;;;;;5049438;28;20647;-74
2021/08/22 07:53:48;;;;;;;1.80;1.80;;;52.00;22.30;;;;;;5049566;28;20198;-75
2021/08/22 07:56:15;;;;;;;2.25;2.15;;;52.20;22.10;;;;;;5047333;28;20728;-74
2021/08/22 07:58:42;;;;;;;1.98;1.98;;;52.40;22.20;;;;;;5049795;28;20216;-75
2021/08/22 08:01:09;;;;;;;2.10;2.08;;;52.60;21.50;;;;;;5049828;28;20293;-74
2021/08/22 08:03:36;;;;;;;2.22;2.20;;;52.90;21.40;;;;;;5049808;28;20268;-74
2021/08/22 08:06:04;;;;;;;2.35;2.25;;;53.20;21.20;;;;;;5049782;28;20227;-74
2021/08/22 08:08:31;;;;;;;2.67;2.58;;;53.60;20.90;;;;;;5049052;28;20197;-75
2021/08/22 08:10:58;;;;;;;2.78;2.67;;;53.90;20.30;;;;;;5047718;28;20248;-74
2021/08/22 08:13:25;;;;;;;2.53;2.42;;;53.80;20.00;;;;;;5049927;28;20197;-74
2021/08/22 08:15:52;;;;;;;2.65;2.55;;;53.90;20.00;;;;;;5049872;28;20204;-74
2021/08/22 08:18:19;;;;;;;3.03;2.80;;;54.00;19.60;;;;;;5049746;28;20670;-74
2021/08/22 08:20:46;;;;;;;2.80;2.70;;;54.00;19.50;;;;;;5048835;28;20277;-74
2021/08/22 08:23:14;;;;;;;2.70;2.60;;;54.10;19.40;;;;;;5040175;28;20255;-74
2021/08/22 08:25:41;;;;;;;2.83;2.58;;;54.30;19.20;;;;;;5048170;28;20276;-74
2021/08/22 08:28:08;;;;;;;2.45;2.35;;;54.40;18.60;;;;;;5049485;28;20197;-73
2021/08/22 08:30:35;;;;;;;2.50;2.40;;;54.30;18.90;;;;;;5048592;28;20217;-74
2021/08/22 08:33:02;;;;;;;2.63;2.53;;;54.60;19.40;;;;;;5050068;28;20209;-75
2021/08/22 08:35:29;;;;;;;2.90;2.75;;;54.90;18.50;;;;;;5047794;28;20204;-75
2021/08/22 08:37:55;;;;;;;3.15;2.90;;;55.10;18.30;;;;;;5045483;28;20813;-75
2021/08/22 08:40:24;;;;;;;2.97;2.88;;;55.50;18.30;;;;;;5041951;28;20193;-75
2021/08/22 08:42:51;;;;;;;2.78;2.67;;;55.80;18.00;;;;;;5049220;28;20601;-75
2021/08/22 08:45:19;;;;;;;3.30;3.08;;;56.00;17.90;;;;;;5047455;28;20205;-74
2021/08/22 08:47:49;;;;;;;2.60;2.50;;;56.30;17.80;;;;;;5046365;28;20248;-77
2021/08/22 08:50:18;;;;;;;2.97;2.88;;;56.20;17.30;;;;;;5048208;28;20247;-74
2021/08/22 08:52:48;;;;;;;2.83;2.72;;;56.10;17.30;;;;;;5047733;28;20193;-76
2021/08/22 08:55:19;;;;;;;2.90;2.80;;;56.00;17.30;;;;;;5051028;28;20200;-76
2021/08/22 08:57:47;;;;;;;2.90;2.80;;;55.90;17.40;;;;;;5052332;28;20592;-76
2021/08/22 09:00:14;;;;;;;3.10;3.00;;;55.80;17.40;;;;;;5048091;28;20369;-76
2021/08/22 09:02:41;;;;;;;3.17;3.00;;;56.00;17.10;;;;;;5048865;28;20197;-76
2021/08/22 09:05:28;;;;;;;3.00;2.90;;;56.00;17.10;;;;;;5047641;28;20208;-75
2021/08/22 09:08:32;;;;;;;3.30;3.10;;;56.00;17.00;;;;;;5045097;28;20205;-73
2021/08/22 09:11:32;;;;;;;3.17;3.08;;;54.70;16.80;;;;;;5046896;28;20248;-76
2021/08/22 09:14:41;;;;;;;2.67;2.58;;;52.60;17.80;;;;;;4970978;28;20214;-76
2021/08/22 09:17:44;;;;;;;2.80;2.60;;;52.70;17.90;;;;;;4906382;29;20273;-75
2021/08/22 09:20:56;;;;;;;2.80;2.70;;;53.30;17.60;;;;;;4893883;29;20206;-74
2021/08/22 09:23:59;;;;;;;3.65;2.67;;;53.80;17.60;;;;;;4904206;29;20706;-73
2021/08/22 09:27:23;;;;;;;2.78;2.63;;;54.10;17.30;;;;;;4909477;29;20237;-74
2021/08/22 09:30:20;;;;;;;3.05;2.95;;;54.10;17.30;;;;;;4816823;29;20718;-76
2021/08/22 09:33:50;;;;;;;2.70;2.60;;;54.30;17.10;;;;;;4817951;29;20282;-75
2021/08/22 09:36:57;;;;;;;2.78;2.67;;;54.40;17.20;;;;;;4761382;30;20260;-75
2021/08/22 09:40:03;;;;;;;3.03;2.85;;;54.70;17.10;;;;;;4686301;30;20213;-75
2021/08/22 09:43:12;;;;;;;3.08;2.97;;;54.80;17.00;;;;;;4688689;30;20241;-75
2021/08/22 09:46:16;;;;;;;2.97;2.88;;;54.80;17.10;;;;;;4687231;30;20226;-74
2021/08/22 09:49:30;;;;;;;3.13;3.03;;;54.60;16.80;;;;;;4685615;30;20501;-75
2021/08/22 09:52:35;;;;;;;2.50;2.40;;;54.20;16.90;;;;;;4721924;30;20255;-75
2021/08/22 09:55:38;;;;;;;3.17;2.97;;;54.00;16.70;;;;;;4786669;29;20699;-75
2021/08/22 09:58:50;;;;;;;2.90;2.80;;;54.00;16.70;;;;;;4799911;29;20217;-74
2021/08/22 10:01:55;;;;;;;2.80;2.70;;;53.90;16.80;;;;;;4795145;29;20283;-75
2021/08/22 10:04:50;;;;;;;3.40;3.10;;;54.00;17.20;;;;;;4842142;29;20242;-74
2021/08/22 10:07:36;;;;;;;2.72;2.63;;;54.00;17.00;;;;;;4900370;29;20733;-75
2021/08/22 10:10:06;;;;;;;2.60;2.50;;;53.90;17.10;;;;;;4939083;28;20215;-75
2021/08/22 10:12:33;;;;;;;2.63;2.53;;;54.20;17.00;;;;;;4970099;28;20261;-75
2021/08/22 10:15:00;;;;;;;3.13;2.95;;;54.40;16.90;;;;;;4976417;28;20294;-75
2021/08/22 10:17:27;;;;;;;2.80;2.70;;;54.70;16.70;;;;;;5046371;28;20280;-75
2021/08/22 10:19:54;;;;;;;3.20;3.10;;;54.60;16.70;;;;;;5048084;28;20536;-75
2021/08/22 10:22:33;;;;;;;3.00;2.75;;;54.80;16.80;;;;;;5047387;28;20225;-74
2021/08/22 10:25:03;;;;;;;3.00;2.90;;;54.90;16.80;;;;;;5046748;28;20236;-75
2021/08/22 10:27:45;;;;;;;3.30;3.10;;;54.90;16.90;;;;;;5048317;28;20224;-73
2021/08/22 10:30:16;;;;;;;3.10;3.00;;;54.90;16.70;;;;;;5047269;28;20193;-74
2021/08/22 10:33:10;;;;;;;3.05;2.95;;;54.70;16.70;;;;;;5046871;28;20268;-73
2021/08/22 10:35:38;;;;;;;2.95;2.85;;;54.30;16.80;;;;;;4961546;28;20212;-74
2021/08/22 10:38:29;;;;;;;2.90;2.80;;;53.70;16.90;;;;;;4948638;28;20214;-74
2021/08/22 10:41:00;;;;;;;2.95;2.85;;;53.30;16.80;;;;;;4945960;28;20711;-74
2021/08/22 10:43:41;;;;;;;2.80;2.70;;;53.00;16.50;;;;;;4966552;28;20212;-74
2021/08/22 10:46:08;;;;;;;2.80;2.70;;;53.10;16.60;;;;;;4960412;28;20221;-74
2021/08/22 10:48:52;;;;;;;2.65;2.55;;;53.30;16.70;;;;;;4959723;28;20255;-73
2021/08/22 10:51:20;;;;;;;3.15;3.00;;;53.50;16.80;;;;;;4965287;28;20228;-73
2021/08/22 10:53:50;;;;;;;2.90;2.70;;;53.30;16.80;;;;;;4950014;28;20227;-73
2021/08/22 10:56:51;;;;;;;3.58;3.30;;;53.10;16.90;;;;;;4971732;28;20683;-73
2021/08/22 10:59:19;;;;;;;2.30;2.20;;;52.60;17.00;;;;;;4908922;29;20608;-73
2021/08/22 11:01:45;;;;;;;2.80;2.70;;;52.50;17.10;;;;;;4908950;29;20265;-74
2021/08/22 11:04:14;;;;;;;2.55;2.45;;;52.40;17.10;;;;;;4909039;29;20265;-74
2021/08/22 11:06:59;;;;;;;2.70;2.60;;;52.40;17.00;;;;;;4889389;29;20754;-74
2021/08/22 11:09:50;;;;;;;3.40;3.10;;;52.30;16.70;;;;;;4905507;29;20232;-74
2021/08/22 11:12:32;;;;;;;2.55;2.45;;;51.90;16.80;;;;;;4913478;28;20303;-73
2021/08/22 11:15:04;;;;;;;2.63;2.53;;;51.50;17.10;;;;;;4926381;29;20235;-73
2021/08/22 11:17:32;;;;;;;2.50;2.40;;;51.40;17.80;;;;;;4939995;28;20255;-74
2021/08/22 11:20:12;;;;;;;2.88;2.78;;;51.20;17.60;;;;;;4935367;29;20209;-74
2021/08/22 11:22:39;;;;;;;2.95;2.75;;;50.90;17.50;;;;;;4928289;29;20237;-74
2021/08/22 11:25:08;;;;;;;2.20;2.10;;;50.30;17.50;;;;;;4933872;29;20213;-74
2021/08/22 11:27:37;;;;;;;2.30;2.20;;;49.90;17.90;;;;;;4940531;28;20211;-74
2021/08/22 11:30:05;;;;;;;2.42;2.25;;;49.90;17.90;;;;;;4952943;28;20212;-74
2021/08/22 11:32:32;;;;;;;2.40;2.20;;;49.90;17.80;;;;;;4972714;28;20344;-74
2021/08/22 11:35:13;;;;;;;2.33;2.22;;;49.70;17.60;;;;;;4989574;28;20243;-74
2021/08/22 11:37:40;;;;;;;2.72;2.53;;;49.60;17.90;;;;;;4988494;28;20231;-74
2021/08/22 11:40:09;;;;;;;2.90;2.45;;;49.50;17.90;;;;;;4985600;28;20203;-74
2021/08/22 11:42:38;;;;;;;2.83;2.60;;;49.10;17.80;;;;;;4962654;28;20204;-74
2021/08/22 11:45:10;;;;;;;2.90;2.80;;;48.50;18.20;;;;;;4987357;28;20234;-74
2021/08/22 11:47:38;;;;;;;2.55;2.45;;;48.10;18.60;;;;;;4973061;28;20306;-74
2021/08/22 11:50:08;;;;;;;2.40;2.30;;;47.70;18.60;;;;;;5047005;28;20225;-74
2021/08/22 11:52:37;;;;;;;2.42;2.22;;;47.30;18.70;;;;;;5049801;28;20229;-73
2021/08/22 11:55:06;;;;;;;2.38;2.28;;;46.60;18.90;;;;;;5035743;28;20196;-74
2021/08/22 11:57:33;;;;;;;2.28;2.17;;;45.90;19.10;;;;;;5056850;28;20209;-75
2021/08/22 12:00:04;;;;;;;2.30;2.20;;;45.60;19.50;;;;;;5038587;28;20190;-74
2021/08/22 12:02:39;;;;;;;1.90;1.80;;;45.20;19.80;;;;;;5050342;28;20883;-74
2021/08/22 12:05:21;;;;;;;2.03;1.92;;;44.50;20.10;;;;;;5050323;28;20237;-75
2021/08/22 12:07:49;;;;;;;1.98;1.88;;;43.90;20.40;;;;;;5049251;28;20212;-75
2021/08/22 12:10:24;;;;;;;2.00;1.90;;;43.40;20.50;;;;;;5048581;28;20208;-75
2021/08/22 12:12:52;;;;;;;2.30;2.20;;;42.60;21.00;;;;;;5049871;28;20301;-74
2021/08/22 12:15:29;;;;;;;2.17;2.08;;;41.10;22.20;;;;;;5048938;28;20522;-75
2021/08/22 12:18:28;;;;;;;1.90;1.80;;;39.20;23.40;;;;;;5048836;28;20224;-74
2021/08/22 12:21:15;;;;;;;1.55;1.45;;;37.50;24.50;;;;;;5049564;28;20208;-74
2021/08/22 12:23:43;;;;;;;1.50;1.50;;;36.00;26.10;;;;;;5048151;28;20312;-74
2021/08/22 12:26:28;;;;;;;1.27;1.25;;;34.80;26.60;;;;;;5048898;28;20649;-75
2021/08/22 12:28:55;;;;;;;1.33;1.23;;;33.90;27.50;;;;;;5050191;28;20295;-74
2021/08/22 12:31:32;;;;;;;1.80;1.35;;;33.00;28.30;;;;;;5050190;28;20206;-74
2021/08/22 12:34:02;;;;;;;1.33;1.30;;;32.30;28.60;;;;;;5043431;28;20194;-74
2021/08/22 12:36:34;;;;;;;1.45;1.35;;;31.70;29.30;;;;;;5049503;28;20248;-74
2021/08/22 12:39:01;;;;;;;1.27;1.17;;;31.00;30.00;;;;;;5047857;28;20906;-75
2021/08/22 12:41:46;;;;;;;1.73;1.20;;;30.40;30.80;;;;;;5048201;28;20209;-74
2021/08/22 12:44:16;;;;;;;1.10;1.05;;;30.00;31.60;;;;;;5048406;28;20213;-74
2021/08/22 12:46:47;;;;;;;1.40;1.10;;;29.50;32.20;;;;;;5048595;28;20263;-75
2021/08/22 12:49:14;;;;;;;1.42;1.33;;;29.10;32.60;;;;;;5048690;28;20233;-74
2021/08/22 12:51:50;;;;;;;2.00;1.40;;;28.80;33.00;;;;;;5047165;28;20276;-73
2021/08/22 12:54:18;;;;;;;1.40;1.30;;;28.50;33.40;;;;;;5048255;28;20611;-74
2021/08/22 12:56:45;;;;;;;1.35;1.25;;;28.20;34.50;;;;;;5056158;28;20205;-73
2021/08/22 12:59:13;;;;;;;1.00;1.00;;;27.90;35.00;;;;;;5048622;28;20216;-75
2021/08/22 13:01:39;;;;;;;1.10;1.05;;;27.50;35.10;;;;;;5049338;28;20202;-74
2021/08/22 13:04:08;;;;;;;1.33;1.23;;;27.30;35.60;;;;;;5048977;28;20222;-74
2021/08/22 13:06:36;;;;;;;3.00;1.20;;;27.10;36.20;;;;;;5049604;28;20260;-74
2021/08/22 13:09:02;;;;;;;1.00;1.00;;;26.90;36.50;;;;;;5043560;28;20194;-74